Time,TemperatureF,DewpointF,PressureIn,WindDirection,WindDirectionDegrees,WindSpeedMPH,WindSpeedGustMPH,Humidity,HourlyPrecipIn,Conditions,Clouds,dailyrainin,SolarRadiationWatts/m^2,SoftwareType,DateUTC
2013-08-04 00:00:00,68.7,49.3,29.94,NW,320,4.0,4.0,50,0.00,,,0.00,0,Wunderground v.1.15,2013-08-04 07:00:00,
2013-08-04 00:10:00,68.1,49.3,29.94,NNW,330,2.0,3.0,51,0.00,,,0.00,0,Wunderground v.1.15,2013-08-04 07:10:00,
2013-08-04 00:15:00,67.8,49.5,29.94,NW,318,2.0,3.0,52,0.00,,,0.00,0,Wunderground v.1.15,2013-08-04 07:15:00,
2013-08-04 00:20:00,67.5,49.3,29.94,NW,320,2.0,2.0,52,0.00,,,0.00,0,Wunderground v.1.15,2013-08-04 07:20:00,
2013-08-04 00:25:00,67.3,49.6,29.94,NW,321,2.0,2.0,53,0.00,,,0.00,0,Wunderground v.1.15,2013-08-04 07:25:00,
2013-08-04 00:30:00,67.0,49.3,29.94,NW,321,3.0,3.0,53,0.00,,,0.00,0,Wunderground v.1.15,2013-08-04 07:30:00,
2013-08-04 00:35:00,66.8,49.6,29.94,NW,323,3.0,3.0,54,0.00,,,0.00,0,Wunderground v.1.15,2013-08-04 07:35:00,
2013-08-04 00:45:00,66.3,49.2,29.94,NW,322,2.0,3.0,54,0.00,,,0.00,0,Wunderground v.1.15,2013-08-04 07:45:00,
2013-08-04 00:50:00,66.0,49.4,29.94,NW,322,2.0,2.0,55,0.00,,,0.00,0,Wunderground v.1.15,2013-08-04 07:50:00,
2013-08-04 00:55:00,65.8,49.7,29.94,NW,322,2.0,2.0,56,0.00,,,0.00,0,Wunderground v.1.15,2013-08-04 07:55:00,
2013-08-04 01:00:00,65.8,49.7,29.94,NW,321,2.0,2.0,56,0.00,,,0.00,0,Wunderground v.1.15,2013-08-04 08:00:00,
2013-08-04 01:10:00,66.0,49.8,29.94,NW,312,3.0,3.0,56,0.00,,,0.00,0,Wunderground v.1.15,2013-08-04 08:10:00,
2013-08-04 01:15:00,65.9,49.8,29.94,NW,311,2.0,3.0,56,0.00,,,0.00,0,Wunderground v.1.15,2013-08-04 08:15:00,
2013-08-04 01:20:00,65.6,49.5,29.94,NW,311,3.0,3.0,56,0.00,,,0.00,0,Wunderground v.1.15,2013-08-04 08:20:00,
2013-08-04 01:25:00,65.3,49.7,29.94,NW,313,3.0,3.0,57,0.00,,,0.00,0,Wunderground v.1.15,2013-08-04 08:25:00,
2013-08-04 01:30:00,65.1,50.0,29.94,NW,313,2.0,2.0,58,0.00,,,0.00,0,Wunderground v.1.15,2013-08-04 08:30:00,
2013-08-04 01:35:00,65.0,49.9,29.94,NW,313,2.0,2.0,58,0.00,,,0.00,0,Wunderground v.1.15,2013-08-04 08:35:00,
2013-08-04 01:40:00,64.9,49.8,29.94,NW,313,1.0,1.0,58,0.00,,,0.00,0,Wunderground v.1.15,2013-08-04 08:40:00,
2013-08-04 01:50:00,64.9,49.8,29.94,NW,313,0.0,0.0,58,0.00,,,0.00,0,Wunderground v.1.15,2013-08-04 08:50:00,
2013-08-04 01:55:00,64.7,49.6,29.94,NW,318,0.0,0.0,58,0.00,,,0.00,0,Wunderground v.1.15,2013-08-04 08:55:00,
2013-08-04 02:00:00,64.7,49.6,29.94,NW,318,0.0,0.0,58,0.00,,,0.00,0,Wunderground v.1.15,2013-08-04 09:00:00,
2013-08-04 02:10:00,64.7,50.0,29.94,NW,318,0.0,0.0,59,0.00,,,0.00,0,Wunderground v.1.15,2013-08-04 09:10:00,
2013-08-04 02:19:00,63.4,47.9,29.94,NW,318,0.0,0.0,57,0.00,,,0.00,0,Wunderground v.1.15,2013-08-04 09:19:00,
2013-08-04 02:25:00,61.8,48.2,29.94,NW,318,0.0,0.0,61,0.00,,,0.00,0,Wunderground v.1.15,2013-08-04 09:25:00,
2013-08-04 02:30:00,60.7,48.4,29.94,NW,318,0.0,0.0,64,0.00,,,0.00,0,Wunderground v.1.15,2013-08-04 09:30:00,
2013-08-04 02:35:00,60.4,48.6,29.94,NW,318,0.0,0.0,65,0.00,,,0.00,0,Wunderground v.1.15,2013-08-04 09:35:00,
2013-08-04 02:40:00,61.0,49.1,29.94,NW,318,0.0,0.0,65,0.00,,,0.00,0,Wunderground v.1.15,2013-08-04 09:40:00,
2013-08-04 02:45:00,60.9,49.1,29.94,NW,318,0.0,0.0,65,0.00,,,0.00,0,Wunderground v.1.15,2013-08-04 09:45:00,
2013-08-04 02:54:00,61.6,49.3,29.94,NW,318,0.0,0.0,64,0.00,,,0.00,0,Wunderground v.1.15,2013-08-04 09:54:00,
2013-08-04 03:00:00,61.5,49.6,29.94,NW,318,0.0,0.0,65,0.00,,,0.00,0,Wunderground v.1.15,2013-08-04 10:00:00,
2013-08-04 03:10:00,61.1,49.7,29.94,NW,318,0.0,0.0,66,0.00,,,0.00,0,Wunderground v.1.15,2013-08-04 10:10:00,
2013-08-04 03:15:00,61.3,49.4,29.94,NW,318,0.0,0.0,65,0.00,,,0.00,0,Wunderground v.1.15,2013-08-04 10:15:00,
2013-08-04 03:25:00,59.9,48.5,29.94,NW,318,0.0,0.0,66,0.00,,,0.00,0,Wunderground v.1.15,2013-08-04 10:25:00,
2013-08-04 03:30:00,59.3,48.7,29.94,NW,318,0.0,0.0,68,0.00,,,0.00,0,Wunderground v.1.15,2013-08-04 10:30:00,
2013-08-04 03:34:00,59.0,48.4,29.94,NW,318,0.0,0.0,68,0.00,,,0.00,0,Wunderground v.1.15,2013-08-04 10:34:00,
2013-08-04 03:40:00,58.7,48.6,29.94,NW,318,0.0,0.0,69,0.00,,,0.00,0,Wunderground v.1.15,2013-08-04 10:40:00,
2013-08-04 03:45:00,58.7,48.6,29.94,NW,318,0.0,0.0,69,0.00,,,0.00,0,Wunderground v.1.15,2013-08-04 10:45:00,
2013-08-04 03:50:00,58.2,48.1,29.94,NW,318,0.0,0.0,69,0.00,,,0.00,0,Wunderground v.1.15,2013-08-04 10:50:00,
2013-08-04 04:00:00,57.1,47.4,29.94,NW,318,0.0,0.0,70,0.00,,,0.00,0,Wunderground v.1.15,2013-08-04 11:00:00,
2013-08-04 04:09:00,56.6,46.9,29.93,NW,318,0.0,0.0,70,0.00,,,0.00,0,Wunderground v.1.15,2013-08-04 11:09:00,
2013-08-04 04:15:00,56.3,47.0,29.94,NW,318,0.0,0.0,71,0.00,,,0.00,0,Wunderground v.1.15,2013-08-04 11:15:00,
2013-08-04 04:20:00,55.9,46.6,29.93,NW,318,0.0,0.0,71,0.00,,,0.00,0,Wunderground v.1.15,2013-08-04 11:20:00,
2013-08-04 04:25:00,55.8,46.9,29.93,NW,317,0.0,0.0,72,0.00,,,0.00,0,Wunderground v.1.15,2013-08-04 11:25:00,
2013-08-04 04:30:00,55.8,46.9,29.93,NW,318,0.0,0.0,72,0.00,,,0.00,0,Wunderground v.1.15,2013-08-04 11:30:00,
2013-08-04 04:35:00,55.3,46.4,29.93,NW,319,0.0,0.0,72,0.00,,,0.00,0,Wunderground v.1.15,2013-08-04 11:35:00,
2013-08-04 04:40:00,55.7,46.8,29.93,NW,319,0.0,0.0,72,0.00,,,0.00,0,Wunderground v.1.15,2013-08-04 11:40:00,
2013-08-04 04:45:00,56.0,47.1,29.93,NW,319,0.0,0.0,72,0.00,,,0.00,0,Wunderground v.1.15,2013-08-04 11:45:00,
2013-08-04 04:50:00,56.3,47.0,29.93,NW,319,0.0,0.0,71,0.00,,,0.00,0,Wunderground v.1.15,2013-08-04 11:50:00,
2013-08-04 05:00:00,56.1,46.8,29.93,NW,319,0.0,0.0,71,0.00,,,0.00,0,Wunderground v.1.15,2013-08-04 12:00:00,
2013-08-04 05:10:00,55.7,46.4,29.93,NW,319,0.0,0.0,71,0.00,,,0.00,0,Wunderground v.1.15,2013-08-04 12:10:00,
2013-08-04 05:15:00,55.6,46.7,29.93,NW,319,0.0,0.0,72,0.00,,,0.00,0,Wunderground v.1.15,2013-08-04 12:15:00,
2013-08-04 05:20:00,55.5,46.6,29.94,NW,319,0.0,0.0,72,0.00,,,0.00,0,Wunderground v.1.15,2013-08-04 12:20:00,
2013-08-04 05:25:00,55.3,46.8,29.94,NW,319,0.0,0.0,73,0.00,,,0.00,0,Wunderground v.1.15,2013-08-04 12:25:00,
2013-08-04 05:35:00,55.3,46.4,29.94,NW,319,0.0,0.0,72,0.00,,,0.00,0,Wunderground v.1.15,2013-08-04 12:35:00,
2013-08-04 05:39:00,55.0,46.1,29.94,NW,319,0.0,0.0,72,0.00,,,0.00,0,Wunderground v.1.15,2013-08-04 12:39:00,
2013-08-04 05:44:00,54.1,45.6,29.94,NW,319,0.0,0.0,73,0.00,,,0.00,0,Wunderground v.1.15,2013-08-04 12:44:00,
2013-08-04 05:50:00,53.3,45.2,29.94,NW,319,0.0,0.0,74,0.00,,,0.00,0,Wunderground v.1.15,2013-08-04 12:50:00,
2013-08-04 05:54:00,53.1,45.4,29.94,NW,319,0.0,0.0,75,0.00,,,0.00,0,Wunderground v.1.15,2013-08-04 12:54:00,
2013-08-04 06:00:00,53.2,45.5,29.94,NW,319,0.0,0.0,75,0.00,,,0.00,7,Wunderground v.1.15,2013-08-04 13:00:00,
2013-08-04 06:09:00,53.0,45.3,29.94,NW,319,0.0,0.0,75,0.00,,,0.00,12,Wunderground v.1.15,2013-08-04 13:09:00,
2013-08-04 06:15:00,52.8,45.1,29.94,NW,319,0.0,0.0,75,0.00,,,0.00,16,Wunderground v.1.15,2013-08-04 13:15:00,
2013-08-04 06:20:00,52.4,44.7,29.94,NW,319,0.0,0.0,75,0.00,,,0.00,19,Wunderground v.1.15,2013-08-04 13:20:00,
2013-08-04 06:25:00,52.0,44.7,29.94,NW,317,0.0,0.0,76,0.00,,,0.00,25,Wunderground v.1.15,2013-08-04 13:25:00,
2013-08-04 06:29:00,52.2,44.5,29.94,WNW,299,0.0,0.0,75,0.00,,,0.00,32,Wunderground v.1.15,2013-08-04 13:29:00,
2013-08-04 06:40:00,53.1,45.0,29.94,WNW,294,0.0,0.0,74,0.00,,,0.00,49,Wunderground v.1.15,2013-08-04 13:40:00,
2013-08-04 06:45:00,54.0,45.2,29.94,WNW,294,0.0,0.0,72,0.00,,,0.00,60,Wunderground v.1.15,2013-08-04 13:45:00,
2013-08-04 06:50:00,54.2,45.4,29.95,WNW,294,0.0,0.0,72,0.00,,,0.00,72,Wunderground v.1.15,2013-08-04 13:50:00,
2013-08-04 06:55:00,54.2,45.4,29.95,WNW,287,0.0,0.0,72,0.00,,,0.00,86,Wunderground v.1.15,2013-08-04 13:55:00,
2013-08-04 07:00:00,54.5,45.7,29.95,WNW,285,0.0,0.0,72,0.00,,,0.00,100,Wunderground v.1.15,2013-08-04 14:00:00,
2013-08-04 07:10:00,55.5,45.9,29.95,West,270,1.0,2.0,70,0.00,,,0.00,125,Wunderground v.1.15,2013-08-04 14:10:00,
2013-08-04 07:15:00,56.0,46.4,29.95,West,259,2.0,2.0,70,0.00,,,0.00,141,Wunderground v.1.15,2013-08-04 14:15:00,
2013-08-04 07:20:00,56.4,46.0,29.95,WSW,238,3.0,3.0,68,0.00,,,0.00,144,Wunderground v.1.15,2013-08-04 14:20:00,
2013-08-04 07:25:00,56.7,46.3,29.95,SW,225,4.0,4.0,68,0.00,,,0.00,158,Wunderground v.1.15,2013-08-04 14:25:00,
2013-08-04 07:30:00,57.1,46.2,29.95,SW,224,4.0,4.0,67,0.00,,,0.00,169,Wunderground v.1.15,2013-08-04 14:30:00,
2013-08-04 07:35:00,57.5,46.2,29.95,SW,223,4.0,4.0,66,0.00,,,0.00,181,Wunderground v.1.15,2013-08-04 14:35:00,
2013-08-04 07:45:00,58.2,46.1,29.95,SW,223,3.0,4.0,64,0.00,,,0.00,204,Wunderground v.1.15,2013-08-04 14:45:00,
2013-08-04 07:50:00,58.8,46.2,29.95,SW,223,3.0,3.0,63,0.00,,,0.00,216,Wunderground v.1.15,2013-08-04 14:50:00,
2013-08-04 07:55:00,59.7,46.2,29.96,SW,223,3.0,3.0,61,0.00,,,0.00,230,Wunderground v.1.15,2013-08-04 14:55:00,
2013-08-04 08:00:00,60.4,46.4,29.96,SSW,207,2.0,2.0,60,0.00,,,0.00,244,Wunderground v.1.15,2013-08-04 15:00:00,
2013-08-04 08:10:00,61.4,46.9,29.96,SSW,206,3.0,3.0,59,0.00,,,0.00,283,Wunderground v.1.15,2013-08-04 15:10:00,
2013-08-04 08:14:00,61.8,46.9,29.96,SSW,206,3.0,7.0,58,0.00,,,0.00,295,Wunderground v.1.15,2013-08-04 15:14:00,
2013-08-04 08:20:00,62.0,47.0,29.95,SSW,206,4.0,4.0,58,0.00,,,0.00,297,Wunderground v.1.15,2013-08-04 15:20:00,
2013-08-04 08:25:00,62.4,47.0,29.95,SSW,200,4.0,4.0,57,0.00,,,0.00,306,Wunderground v.1.15,2013-08-04 15:25:00,
2013-08-04 08:30:00,63.4,47.4,29.95,SSW,193,3.0,3.0,56,0.00,,,0.00,318,Wunderground v.1.15,2013-08-04 15:30:00,
2013-08-04 08:35:00,63.9,47.4,29.96,South,190,3.0,3.0,55,0.00,,,0.00,329,Wunderground v.1.15,2013-08-04 15:35:00,
2013-08-04 08:40:00,64.2,47.7,29.95,South,188,2.0,2.0,55,0.00,,,0.00,350,Wunderground v.1.15,2013-08-04 15:40:00,
2013-08-04 08:49:00,66.3,47.6,29.95,South,188,1.0,1.0,51,0.00,,,0.00,380,Wunderground v.1.15,2013-08-04 15:49:00,
2013-08-04 08:54:00,67.0,48.3,29.95,South,188,0.0,1.0,51,0.00,,,0.00,399,Wunderground v.1.15,2013-08-04 15:54:00,
2013-08-04 09:00:00,67.2,47.9,29.95,South,185,1.0,1.0,50,0.00,,,0.00,411,Wunderground v.1.15,2013-08-04 16:00:00,
2013-08-04 09:10:00,68.7,48.8,29.95,South,184,0.0,0.0,49,0.00,,,0.00,445,Wunderground v.1.15,2013-08-04 16:10:00,
2013-08-04 09:15:00,68.3,48.4,29.95,South,185,0.0,0.0,49,0.00,,,0.00,475,Wunderground v.1.15,2013-08-04 16:15:00,
2013-08-04 09:20:00,69.8,48.7,29.94,South,184,0.0,0.0,47,0.00,,,0.00,490,Wunderground v.1.15,2013-08-04 16:20:00,
2013-08-04 09:25:00,69.9,48.7,29.94,South,184,0.0,0.0,47,0.00,,,0.00,510,Wunderground v.1.15,2013-08-04 16:25:00,
2013-08-04 09:30:00,70.7,48.9,29.94,South,184,0.0,0.0,46,0.00,,,0.00,520,Wunderground v.1.15,2013-08-04 16:30:00,
2013-08-04 09:35:00,69.4,48.9,29.94,South,185,0.0,0.0,48,0.00,,,0.00,533,Wunderground v.1.15,2013-08-04 16:35:00,
2013-08-04 09:44:00,71.2,48.8,29.93,South,185,0.0,0.0,45,0.00,,,0.00,561,Wunderground v.1.15,2013-08-04 16:44:00,
2013-08-04 09:50:00,71.1,49.3,29.93,South,184,1.0,1.0,46,0.00,,,0.00,570,Wunderground v.1.15,2013-08-04 16:50:00,
2013-08-04 09:54:00,71.0,49.2,29.93,South,184,1.0,1.0,46,0.00,,,0.00,585,Wunderground v.1.15,2013-08-04 16:54:00,
2013-08-04 10:00:00,71.5,49.6,29.93,ENE,70,2.0,2.0,46,0.00,,,0.00,603,Wunderground v.1.15,2013-08-04 17:00:00,
2013-08-04 10:10:00,73.4,49.5,29.93,ENE,65,2.0,3.0,43,0.00,,,0.00,626,Wunderground v.1.15,2013-08-04 17:10:00,
2013-08-04 10:15:00,72.8,50.2,29.93,NNE,18,3.0,5.0,45,0.00,,,0.00,640,Wunderground v.1.15,2013-08-04 17:15:00,
2013-08-04 10:24:00,72.4,49.9,29.93,North,5,3.0,4.0,45,0.00,,,0.00,656,Wunderground v.1.15,2013-08-04 17:24:00,
2013-08-04 10:29:00,73.5,50.2,29.93,North,360,2.0,3.0,44,0.00,,,0.00,671,Wunderground v.1.15,2013-08-04 17:29:00,
2013-08-04 10:35:00,74.0,50.7,29.92,NNW,347,3.0,3.0,44,0.00,,,0.00,687,Wunderground v.1.15,2013-08-04 17:35:00,
2013-08-04 10:40:00,73.5,50.9,29.92,North,5,4.0,7.0,45,0.00,,,0.00,705,Wunderground v.1.15,2013-08-04 17:40:00,
2013-08-04 10:45:00,73.4,50.2,29.92,NNW,331,4.0,7.0,44,0.00,,,0.00,710,Wunderground v.1.15,2013-08-04 17:45:00,
2013-08-04 10:55:00,74.0,50.7,29.92,North,355,3.0,6.0,44,0.00,,,0.00,735,Wunderground v.1.15,2013-08-04 17:55:00,
2013-08-04 11:00:00,74.2,50.9,29.92,NNE,19,3.0,3.0,44,0.00,,,0.00,724,Wunderground v.1.15,2013-08-04 18:00:00,
2013-08-04 11:09:00,74.9,50.9,29.92,North,355,4.0,4.0,43,0.00,,,0.00,747,Wunderground v.1.15,2013-08-04 18:09:00,
2013-08-04 11:14:00,74.3,50.4,29.92,NNW,336,5.0,5.0,43,0.00,,,0.00,749,Wunderground v.1.15,2013-08-04 18:14:00,
2013-08-04 11:20:00,74.7,50.1,29.92,NE,34,5.0,5.0,42,0.00,,,0.00,751,Wunderground v.1.15,2013-08-04 18:20:00,
2013-08-04 11:30:00,75.5,50.8,29.91,NNW,342,5.0,7.0,42,0.00,,,0.00,770,Wunderground v.1.15,2013-08-04 18:30:00,
2013-08-04 11:35:00,75.8,50.4,29.91,North,355,5.0,7.0,41,0.00,,,0.00,779,Wunderground v.1.15,2013-08-04 18:35:00,
2013-08-04 11:40:00,76.1,50.0,29.91,NW,325,5.0,8.0,40,0.00,,,0.00,802,Wunderground v.1.15,2013-08-04 18:40:00,
2013-08-04 11:44:00,77.1,50.2,29.91,NNE,23,6.0,8.0,39,0.00,,,0.00,807,Wunderground v.1.15,2013-08-04 18:44:00,
2013-08-04 11:49:00,77.4,50.5,29.91,NNE,24,5.0,6.0,39,0.00,,,0.00,819,Wunderground v.1.15,2013-08-04 18:49:00,
2013-08-04 12:00:00,77.1,49.5,29.91,NE,41,6.0,6.0,38,0.00,,,0.00,828,Wunderground v.1.15,2013-08-04 19:00:00,
2013-08-04 12:10:00,78.2,51.2,29.90,NW,326,4.0,6.0,39,0.00,,,0.00,835,Wunderground v.1.15,2013-08-04 19:10:00,
2013-08-04 12:15:00,78.8,51.0,29.90,NNW,334,6.0,6.0,38,0.00,,,0.00,842,Wunderground v.1.15,2013-08-04 19:15:00,
2013-08-04 12:20:00,79.2,49.9,29.90,North,360,6.0,9.0,36,0.00,,,0.00,840,Wunderground v.1.15,2013-08-04 19:20:00,
2013-08-04 12:25:00,79.4,50.9,29.90,NNE,21,5.0,9.0,37,0.00,,,0.00,849,Wunderground v.1.15,2013-08-04 19:25:00,
2013-08-04 12:35:00,78.9,49.7,29.89,NW,304,6.0,6.0,36,0.00,,,0.00,858,Wunderground v.1.15,2013-08-04 19:35:00,
2013-08-04 12:40:00,79.7,50.4,29.89,NNW,328,6.0,6.0,36,0.00,,,0.00,860,Wunderground v.1.15,2013-08-04 19:40:00,
2013-08-04 12:45:00,80.3,50.1,29.89,North,5,5.0,6.0,35,0.00,,,0.00,865,Wunderground v.1.15,2013-08-04 19:45:00,
2013-08-04 12:50:00,80.2,50.1,29.89,NNE,20,5.0,7.0,35,0.00,,,0.00,865,Wunderground v.1.15,2013-08-04 19:50:00,
2013-08-04 12:54:00,80.6,49.6,29.89,North,350,7.0,7.0,34,0.00,,,0.00,867,Wunderground v.1.15,2013-08-04 19:54:00,
2013-08-04 13:00:00,80.4,48.7,29.89,NNE,24,6.0,6.0,33,0.00,,,0.00,870,Wunderground v.1.15,2013-08-04 20:00:00,
2013-08-04 13:10:00,81.6,49.7,29.89,North,350,7.0,7.0,33,0.00,,,0.00,874,Wunderground v.1.15,2013-08-04 20:10:00,
2013-08-04 13:14:00,81.3,48.6,29.88,NNW,338,7.0,7.0,32,0.00,,,0.00,874,Wunderground v.1.15,2013-08-04 20:14:00,
2013-08-04 13:20:00,82.1,49.3,29.88,North,350,6.0,6.0,32,0.00,,,0.00,874,Wunderground v.1.15,2013-08-04 20:20:00,
2013-08-04 13:25:00,81.5,49.6,29.88,NNE,31,6.0,10.0,33,0.00,,,0.00,874,Wunderground v.1.15,2013-08-04 20:25:00,
2013-08-04 13:30:00,81.1,48.4,29.88,North,360,6.0,6.0,32,0.00,,,0.00,874,Wunderground v.1.15,2013-08-04 20:30:00,
2013-08-04 13:39:00,82.3,47.8,29.88,North,355,5.0,5.0,30,0.00,,,0.00,868,Wunderground v.1.15,2013-08-04 20:39:00,
2013-08-04 13:44:00,82.9,49.2,29.87,NNE,25,5.0,11.0,31,0.00,,,0.00,867,Wunderground v.1.15,2013-08-04 20:44:00,
2013-08-04 13:50:00,83.6,48.0,29.87,North,355,7.0,8.0,29,0.00,,,0.00,867,Wunderground v.1.15,2013-08-04 20:50:00,
2013-08-04 13:55:00,83.5,47.9,29.87,North,9,6.0,8.0,29,0.00,,,0.00,863,Wunderground v.1.15,2013-08-04 20:55:00,
2013-08-04 14:00:00,84.2,47.6,29.87,NNE,13,5.0,8.0,28,0.00,,,0.00,863,Wunderground v.1.15,2013-08-04 21:00:00,
2013-08-04 14:05:00,83.5,47.9,29.87,NNE,24,6.0,8.0,29,0.00,,,0.00,858,Wunderground v.1.15,2013-08-04 21:05:00,
2013-08-04 14:10:00,84.3,45.7,29.87,NW,319,7.0,7.0,26,0.00,,,0.00,854,Wunderground v.1.15,2013-08-04 21:10:00,
2013-08-04 14:15:00,83.9,45.3,29.86,NNE,18,6.0,7.0,26,0.00,,,0.00,849,Wunderground v.1.15,2013-08-04 21:15:00,
2013-08-04 14:20:00,84.6,44.9,29.86,NNE,22,4.0,7.0,25,0.00,,,0.00,847,Wunderground v.1.15,2013-08-04 21:20:00,
2013-08-04 14:30:00,85.2,44.3,29.85,North,360,6.0,6.0,24,0.00,,,0.00,837,Wunderground v.1.15,2013-08-04 21:30:00,
2013-08-04 14:39:00,85.7,43.6,29.85,NNW,345,5.0,5.0,23,0.00,,,0.00,826,Wunderground v.1.15,2013-08-04 21:39:00,
2013-08-04 14:45:00,85.6,44.7,29.85,North,5,5.0,6.0,24,0.00,,,0.00,821,Wunderground v.1.15,2013-08-04 21:45:00,
2013-08-04 14:54:00,85.9,43.8,29.84,North,355,6.0,7.0,23,0.00,,,0.00,809,Wunderground v.1.15,2013-08-04 21:54:00,
2013-08-04 15:00:00,86.5,43.1,29.84,North,10,6.0,6.0,22,0.00,,,0.00,803,Wunderground v.1.15,2013-08-04 22:00:00,
2013-08-04 15:09:00,86.8,44.6,29.84,North,9,5.0,5.0,23,0.00,,,0.00,782,Wunderground v.1.15,2013-08-04 22:09:00,
2013-08-04 15:20:00,86.6,44.4,29.83,North,11,6.0,6.0,23,0.00,,,0.00,772,Wunderground v.1.15,2013-08-04 22:20:00,
2013-08-04 15:25:00,87.2,43.7,29.83,North,355,6.0,6.0,22,0.00,,,0.00,765,Wunderground v.1.15,2013-08-04 22:25:00,
2013-08-04 15:30:00,87.3,46.1,29.83,North,11,5.0,5.0,24,0.00,,,0.00,759,Wunderground v.1.15,2013-08-04 22:30:00,
2013-08-04 15:35:00,87.1,44.8,29.83,NE,35,6.0,11.0,23,0.00,,,0.00,744,Wunderground v.1.15,2013-08-04 22:35:00,
2013-08-04 15:44:00,87.8,44.2,29.82,ENE,63,4.0,6.0,22,0.00,,,0.00,717,Wunderground v.1.15,2013-08-04 22:44:00,
2013-08-04 15:50:00,87.4,45.1,29.82,North,360,2.0,8.0,23,0.00,,,0.00,715,Wunderground v.1.15,2013-08-04 22:50:00,
2013-08-04 15:55:00,87.7,44.1,29.82,NE,45,5.0,8.0,22,0.00,,,0.00,656,Wunderground v.1.15,2013-08-04 22:55:00,
2013-08-04 16:00:00,87.4,43.9,29.82,NNE,17,6.0,6.0,22,0.00,,,0.00,682,Wunderground v.1.15,2013-08-04 23:00:00,
2013-08-04 16:09:00,87.3,43.8,29.82,NNE,30,5.0,5.0,22,0.00,,,0.00,640,Wunderground v.1.15,2013-08-04 23:09:00,
2013-08-04 16:19:00,88.4,43.5,29.81,NNW,336,2.0,2.0,21,0.00,,,0.00,596,Wunderground v.1.15,2013-08-04 23:19:00,
2013-08-04 16:25:00,88.5,43.6,29.81,North,10,3.0,7.0,21,0.00,,,0.00,534,Wunderground v.1.15,2013-08-04 23:25:00,
2013-08-04 16:30:00,88.3,44.6,29.81,North,360,5.0,6.0,22,0.00,,,0.00,503,Wunderground v.1.15,2013-08-04 23:30:00,
2013-08-04 16:34:00,88.0,43.2,29.81,ENE,67,6.0,6.0,21,0.00,,,0.00,582,Wunderground v.1.15,2013-08-04 23:34:00,
2013-08-04 16:40:00,88.6,44.9,29.80,NNE,30,4.0,4.0,22,0.00,,,0.00,541,Wunderground v.1.15,2013-08-04 23:40:00,
2013-08-04 16:50:00,89.3,44.2,29.80,NNE,18,4.0,4.0,21,0.00,,,0.00,543,Wunderground v.1.15,2013-08-04 23:50:00,
2013-08-04 16:54:00,88.8,43.8,29.80,NNE,26,4.0,4.0,21,0.00,,,0.00,506,Wunderground v.1.15,2013-08-04 23:54:00,
2013-08-04 17:00:00,88.1,43.2,29.80,NNW,344,3.0,3.0,21,0.00,,,0.00,475,Wunderground v.1.15,2013-08-05 00:00:00,
2013-08-04 17:09:00,88.4,43.5,29.80,ENE,63,3.0,3.0,21,0.00,,,0.00,443,Wunderground v.1.15,2013-08-05 00:09:00,
2013-08-04 17:15:00,88.0,43.2,29.80,NE,52,2.0,3.0,21,0.00,,,0.00,450,Wunderground v.1.15,2013-08-05 00:15:00,
2013-08-04 17:25:00,88.3,43.4,29.80,North,360,5.0,5.0,21,0.00,,,0.00,438,Wunderground v.1.15,2013-08-05 00:25:00,
2013-08-04 17:30:00,88.3,43.4,29.79,NNW,339,3.0,6.0,21,0.00,,,0.00,420,Wunderground v.1.15,2013-08-05 00:30:00,
2013-08-04 17:35:00,88.5,43.6,29.79,NNE,17,4.0,6.0,21,0.00,,,0.00,381,Wunderground v.1.15,2013-08-05 00:35:00,
2013-08-04 17:40:00,88.1,43.2,29.79,NNW,348,5.0,7.0,21,0.00,,,0.00,369,Wunderground v.1.15,2013-08-05 00:40:00,
2013-08-04 17:44:00,88.0,43.2,29.79,NNE,23,6.0,7.0,21,0.00,,,0.00,353,Wunderground v.1.15,2013-08-05 00:44:00,
2013-08-04 17:55:00,88.1,43.2,29.79,NNE,30,4.0,6.0,21,0.00,,,0.00,357,Wunderground v.1.15,2013-08-05 00:55:00,
2013-08-04 18:00:00,88.1,43.2,29.79,North,355,4.0,6.0,21,0.00,,,0.00,352,Wunderground v.1.15,2013-08-05 01:00:00,
2013-08-04 18:10:00,87.6,44.1,29.79,NNE,32,6.0,6.0,22,0.00,,,0.00,329,Wunderground v.1.15,2013-08-05 01:10:00,
2013-08-04 18:15:00,87.4,43.9,29.79,North,5,5.0,6.0,22,0.00,,,0.00,95,Wunderground v.1.15,2013-08-05 01:15:00,
2013-08-04 18:20:00,87.0,43.6,29.79,North,350,3.0,3.0,22,0.00,,,0.00,88,Wunderground v.1.15,2013-08-05 01:20:00,
2013-08-04 18:30:00,86.9,43.5,29.79,NNW,336,0.0,3.0,22,0.00,,,0.00,274,Wunderground v.1.15,2013-08-05 01:30:00,
2013-08-04 18:35:00,87.4,43.9,29.79,NW,317,2.0,5.0,22,0.00,,,0.00,262,Wunderground v.1.15,2013-08-05 01:35:00,
2013-08-04 18:39:00,87.5,44.0,29.79,North,350,4.0,4.0,22,0.00,,,0.00,241,Wunderground v.1.15,2013-08-05 01:39:00,
2013-08-04 18:45:00,87.4,43.9,29.79,North,355,3.0,4.0,22,0.00,,,0.00,206,Wunderground v.1.15,2013-08-05 01:45:00,
2013-08-04 18:50:00,87.2,43.7,29.79,North,360,3.0,4.0,22,0.00,,,0.00,141,Wunderground v.1.15,2013-08-05 01:50:00,
2013-08-04 19:00:00,86.6,44.4,29.79,NNW,333,2.0,2.0,23,0.00,,,0.00,151,Wunderground v.1.15,2013-08-05 02:00:00,
2013-08-04 19:09:00,86.5,44.3,29.79,North,355,1.0,1.0,23,0.00,,,0.00,158,Wunderground v.1.15,2013-08-05 02:09:00,
2013-08-04 19:15:00,86.5,44.3,29.79,NNW,344,0.0,1.0,23,0.00,,,0.00,139,Wunderground v.1.15,2013-08-05 02:15:00,
2013-08-04 19:20:00,86.4,45.3,29.80,WNW,288,1.0,5.0,24,0.00,,,0.00,120,Wunderground v.1.15,2013-08-05 02:20:00,
2013-08-04 19:25:00,86.3,41.8,29.80,West,275,3.0,5.0,21,0.00,,,0.00,105,Wunderground v.1.15,2013-08-05 02:25:00,
2013-08-04 19:35:00,85.6,41.2,29.80,WNW,298,3.0,6.0,21,0.00,,,0.00,81,Wunderground v.1.15,2013-08-05 02:35:00,
2013-08-04 19:40:00,85.3,40.9,29.80,WNW,286,2.0,2.0,21,0.00,,,0.00,65,Wunderground v.1.15,2013-08-05 02:40:00,
2013-08-04 19:45:00,85.1,42.0,29.80,North,355,1.0,8.0,22,0.00,,,0.00,56,Wunderground v.1.15,2013-08-05 02:45:00,
2013-08-04 19:50:00,84.9,43.0,29.80,North,360,3.0,6.0,23,0.00,,,0.00,47,Wunderground v.1.15,2013-08-05 02:50:00,
2013-08-04 19:54:00,84.6,42.7,29.80,NW,312,6.0,6.0,23,0.00,,,0.00,39,Wunderground v.1.15,2013-08-05 02:54:00,
2013-08-04 20:00:00,84.2,43.5,29.80,NNW,343,6.0,6.0,24,0.00,,,0.00,30,Wunderground v.1.15,2013-08-05 03:00:00,
2013-08-04 20:10:00,83.6,43.0,29.81,NW,320,6.0,10.0,24,0.00,,,0.00,19,Wunderground v.1.15,2013-08-05 03:10:00,
2013-08-04 20:15:00,83.3,42.7,29.81,NNW,348,8.0,10.0,24,0.00,,,0.00,16,Wunderground v.1.15,2013-08-05 03:15:00,
2013-08-04 20:20:00,83.1,42.6,29.81,NNW,342,8.0,8.0,24,0.00,,,0.00,11,Wunderground v.1.15,2013-08-05 03:20:00,
2013-08-04 20:25:00,82.9,42.4,29.82,NNW,327,7.0,8.0,24,0.00,,,0.00,7,Wunderground v.1.15,2013-08-05 03:25:00,
2013-08-04 20:30:00,82.5,42.1,29.82,NNW,329,4.0,4.0,24,0.00,,,0.00,5,Wunderground v.1.15,2013-08-05 03:30:00,
2013-08-04 20:40:00,81.6,40.2,29.82,North,350,2.0,4.0,23,0.00,,,0.00,0,Wunderground v.1.15,2013-08-05 03:40:00,
2013-08-04 20:45:00,81.4,40.0,29.83,North,355,3.0,4.0,23,0.00,,,0.00,0,Wunderground v.1.15,2013-08-05 03:45:00,
2013-08-04 20:49:00,81.1,39.8,29.83,NNW,336,3.0,3.0,23,0.00,,,0.00,0,Wunderground v.1.15,2013-08-05 03:49:00,
2013-08-04 20:55:00,80.8,39.5,29.83,NNW,337,2.0,3.0,23,0.00,,,0.00,0,Wunderground v.1.15,2013-08-05 03:55:00,
2013-08-04 21:00:00,80.4,39.2,29.83,NNW,339,1.0,2.0,23,0.00,,,0.00,0,Wunderground v.1.15,2013-08-05 04:00:00,
2013-08-04 21:04:00,80.3,40.2,29.83,NW,317,3.0,5.0,24,0.00,,,0.00,0,Wunderground v.1.15,2013-08-05 04:04:00,
2013-08-04 21:09:00,80.2,42.2,29.84,NW,326,4.0,5.0,26,0.00,,,0.00,0,Wunderground v.1.15,2013-08-05 04:09:00,
2013-08-04 21:14:00,80.0,43.0,29.84,NNW,329,4.0,6.0,27,0.00,,,0.00,0,Wunderground v.1.15,2013-08-05 04:14:00,
2013-08-04 21:19:00,79.8,44.7,29.84,NNW,344,4.0,4.0,29,0.00,,,0.00,0,Wunderground v.1.15,2013-08-05 04:19:00,
2013-08-04 21:25:00,79.7,48.0,29.84,North,355,6.0,6.0,33,0.00,,,0.00,0,Wunderground v.1.15,2013-08-05 04:25:00,
2013-08-04 21:30:00,79.6,48.0,29.84,North,360,6.0,6.0,33,0.00,,,0.00,0,Wunderground v.1.15,2013-08-05 04:30:00,
2013-08-04 21:34:00,79.3,49.3,29.84,North,360,5.0,11.0,35,0.00,,,0.00,0,Wunderground v.1.15,2013-08-05 04:34:00,
2013-08-04 21:39:00,79.0,50.5,29.84,NNW,346,5.0,5.0,37,0.00,,,0.00,0,Wunderground v.1.15,2013-08-05 04:39:00,
2013-08-04 21:45:00,78.6,50.9,29.85,NNW,348,5.0,7.0,38,0.00,,,0.00,0,Wunderground v.1.15,2013-08-05 04:45:00,
2013-08-04 21:49:00,78.5,51.5,29.84,NNW,331,6.0,6.0,39,0.00,,,0.00,0,Wunderground v.1.15,2013-08-05 04:49:00,
2013-08-04 21:54:00,78.3,51.3,29.85,NNW,339,6.0,6.0,39,0.00,,,0.00,0,Wunderground v.1.15,2013-08-05 04:54:00,
2013-08-04 22:00:00,77.9,50.9,29.85,NNW,340,5.0,5.0,39,0.00,,,0.00,0,Wunderground v.1.15,2013-08-05 05:00:00,
2013-08-04 22:10:00,77.4,51.9,29.85,North,360,6.0,6.0,41,0.00,,,0.00,0,Wunderground v.1.15,2013-08-05 05:10:00,
2013-08-04 22:15:00,77.3,52.4,29.85,North,349,6.0,6.0,42,0.00,,,0.00,0,Wunderground v.1.15,2013-08-05 05:15:00,
2013-08-04 22:20:00,77.2,52.3,29.85,North,360,6.0,6.0,42,0.00,,,0.00,0,Wunderground v.1.15,2013-08-05 05:20:00,
2013-08-04 22:25:00,76.8,52.6,29.85,NW,322,6.0,6.0,43,0.00,,,0.00,0,Wunderground v.1.15,2013-08-05 05:25:00,
2013-08-04 22:30:00,76.6,53.1,29.85,North,5,6.0,7.0,44,0.00,,,0.00,0,Wunderground v.1.15,2013-08-05 05:30:00,
2013-08-04 22:34:00,76.4,53.5,29.85,NNW,328,6.0,7.0,45,0.00,,,0.00,0,Wunderground v.1.15,2013-08-05 05:34:00,
2013-08-04 22:45:00,75.6,53.9,29.85,North,355,6.0,9.0,47,0.00,,,0.00,0,Wunderground v.1.15,2013-08-05 05:45:00,
2013-08-04 22:50:00,75.2,54.2,29.85,NNW,327,6.0,9.0,48,0.00,,,0.00,0,Wunderground v.1.15,2013-08-05 05:50:00,
2013-08-04 22:54:00,75.0,54.0,29.85,North,5,6.0,9.0,48,0.00,,,0.00,0,Wunderground v.1.15,2013-08-05 05:54:00,
2013-08-04 23:00:00,74.8,54.9,29.86,North,360,6.0,7.0,50,0.00,,,0.00,0,Wunderground v.1.15,2013-08-05 06:00:00,
2013-08-04 23:09:00,74.0,54.7,29.86,NNW,343,5.0,5.0,51,0.00,,,0.00,0,Wunderground v.1.15,2013-08-05 06:09:00,
2013-08-04 23:15:00,73.7,55.0,29.86,North,360,5.0,5.0,52,0.00,,,0.00,0,Wunderground v.1.15,2013-08-05 06:15:00,
2013-08-04 23:20:00,73.3,55.1,29.86,North,355,5.0,5.0,53,0.00,,,0.00,0,Wunderground v.1.15,2013-08-05 06:20:00,
2013-08-04 23:25:00,72.9,54.8,29.86,NNW,343,5.0,5.0,53,0.00,,,0.00,0,Wunderground v.1.15,2013-08-05 06:25:00,
2013-08-04 23:30:00,72.4,54.8,29.86,NNW,340,4.0,6.0,54,0.00,,,0.00,0,Wunderground v.1.15,2013-08-05 06:30:00,
2013-08-04 23:35:00,72.2,55.1,29.86,NNW,341,4.0,6.0,55,0.00,,,0.00,0,Wunderground v.1.15,2013-08-05 06:35:00,
2013-08-04 23:40:00,72.0,54.9,29.86,NNW,345,4.0,4.0,55,0.00,,,0.00,0,Wunderground v.1.15,2013-08-05 06:40:00,
2013-08-04 23:50:00,71.4,54.9,29.86,North,355,4.0,4.0,56,0.00,,,0.00,0,Wunderground v.1.15,2013-08-05 06:50:00,
2013-08-04 23:55:00,71.0,55.0,29.86,North,355,4.0,4.0,57,0.00,,,0.00,0,Wunderground v.1.15,2013-08-05 06:55:00,